Time;durP1;ratioP1;P1;durP2;ratioP2;P2;SDS_P1;SDS_P2;PMS_P1;PMS_P2;Temp;Humidity;BMP_temperature;BMP_pressure;BME280_temperature;BME280_humidity;BME280_pressure;Samples;Min_cycle;Max_cycle;Signal;HPM_P1;HPM_P2
2024/02/10 00:00:36;;;;;;;8.38;4.18;;;9.10;99.90;;;;;;5100627;28;20036;-63
2024/02/10 00:03:02;;;;;;;6.93;3.90;;;9.10;99.90;;;;;;5081036;28;20028;-63
2024/02/10 00:05:28;;;;;;;4.97;3.38;;;9.10;99.90;;;;;;5079825;28;20123;-63
2024/02/10 00:07:55;;;;;;;6.55;3.25;;;9.00;99.90;;;;;;5081360;28;20393;-63
2024/02/10 00:10:26;;;;;;;7.05;3.45;;;9.10;99.90;;;;;;5083021;28;20088;-63
2024/02/10 00:12:57;;;;;;;8.30;3.80;;;9.00;99.90;;;;;;5081145;28;20027;-63
2024/02/10 00:15:24;;;;;;;6.05;3.45;;;9.10;99.90;;;;;;5085403;28;20043;-63
2024/02/10 00:17:49;;;;;;;7.03;4.35;;;9.20;99.90;;;;;;5080354;28;20131;-63
2024/02/10 00:20:15;;;;;;;7.78;3.75;;;9.00;99.90;;;;;;5083601;28;20178;-63
2024/02/10 00:22:46;;;;;;;5.28;3.42;;;9.00;99.90;;;;;;5074339;28;20051;-63
2024/02/10 00:25:15;;;;;;;9.98;3.88;;;9.00;99.90;;;;;;5079979;28;20047;-63
2024/02/10 00:27:42;;;;;;;7.00;3.70;;;9.00;99.90;;;;;;5081766;28;20489;-63
2024/02/10 00:30:08;;;;;;;9.52;3.90;;;9.10;99.90;;;;;;5092496;28;20078;-63
2024/02/10 00:32:37;;;;;;;6.43;3.70;;;9.00;99.90;;;;;;5096147;28;20125;-63
2024/02/10 00:35:03;;;;;;;6.75;4.07;;;9.10;99.90;;;;;;5116319;27;20067;-63
2024/02/10 00:37:29;;;;;;;6.68;3.95;;;9.20;99.90;;;;;;5066812;28;20055;-63
2024/02/10 00:39:55;;;;;;;7.80;3.88;;;9.20;99.90;;;;;;5082952;28;20382;-63
2024/02/10 00:42:23;;;;;;;7.15;3.97;;;9.20;99.90;;;;;;5067158;28;20040;-63
2024/02/10 00:44:51;;;;;;;6.93;4.45;;;9.20;99.90;;;;;;5095812;28;20085;-63
2024/02/10 00:47:17;;;;;;;8.98;4.25;;;9.20;99.90;;;;;;5097778;28;20055;-63
2024/02/10 00:49:43;;;;;;;5.95;4.00;;;9.30;99.90;;;;;;5079716;28;20040;-63
2024/02/10 00:52:09;;;;;;;7.88;4.28;;;9.30;99.90;;;;;;5110132;27;20039;-63
2024/02/10 00:54:37;;;;;;;4.15;2.78;;;9.40;99.90;;;;;;5080524;28;20046;-63
2024/02/10 00:57:05;;;;;;;4.72;3.70;;;9.30;99.90;;;;;;5080063;28;20123;-63
2024/02/10 00:59:31;;;;;;;6.25;3.35;;;9.40;99.90;;;;;;5080850;28;20050;-63
2024/02/10 01:01:57;;;;;;;8.38;4.15;;;9.40;99.90;;;;;;5093585;28;20040;-63
2024/02/10 01:04:24;;;;;;;5.65;3.55;;;9.40;99.90;;;;;;5097913;28;20028;-63
2024/02/10 01:06:53;;;;;;;11.00;3.95;;;9.60;99.90;;;;;;5081820;28;20047;-63
2024/02/10 01:09:19;;;;;;;11.30;4.28;;;9.50;99.90;;;;;;5079479;28;20043;-63
2024/02/10 01:11:46;;;;;;;7.75;3.97;;;9.50;99.90;;;;;;5095376;28;20040;-63
2024/02/10 01:14:15;;;;;;;5.55;3.80;;;9.40;99.90;;;;;;5099503;28;20812;-63
2024/02/10 01:16:43;;;;;;;8.13;4.40;;;9.40;99.90;;;;;;5094302;28;20035;-63
2024/02/10 01:19:09;;;;;;;8.43;4.40;;;9.50;99.90;;;;;;5112672;27;20046;-63
2024/02/10 01:21:39;;;;;;;6.05;3.90;;;9.50;99.90;;;;;;5093894;28;20047;-63
2024/02/10 01:24:06;;;;;;;7.25;3.70;;;9.50;99.90;;;;;;5110999;27;20119;-63
2024/02/10 01:26:35;;;;;;;10.57;4.45;;;9.70;99.90;;;;;;5100341;28;20039;-63
2024/02/10 01:29:01;;;;;;;11.82;3.70;;;9.40;99.90;;;;;;5080413;28;20044;-63
2024/02/10 01:31:27;;;;;;;6.82;3.72;;;9.50;99.90;;;;;;5081217;28;20043;-63
2024/02/10 01:33:53;;;;;;;8.75;4.30;;;9.50;99.90;;;;;;5063776;28;20043;-63
2024/02/10 01:36:19;;;;;;;7.93;4.10;;;9.40;99.90;;;;;;5079346;28;20439;-63
2024/02/10 01:38:46;;;;;;;8.85;4.22;;;9.40;99.90;;;;;;5093208;28;20382;-63
2024/02/10 01:41:13;;;;;;;8.30;4.60;;;9.40;99.90;;;;;;5096037;28;20041;-63
2024/02/10 01:43:41;;;;;;;11.52;4.57;;;9.30;99.90;;;;;;5077863;28;20113;-63
2024/02/10 01:46:13;;;;;;;8.38;4.63;;;9.40;99.90;;;;;;5097925;28;20044;-63
2024/02/10 01:48:40;;;;;;;9.65;4.50;;;9.30;99.90;;;;;;5075748;28;20039;-63
2024/02/10 01:51:06;;;;;;;10.55;4.93;;;9.30;99.90;;;;;;5108768;27;20078;-63
2024/02/10 01:53:32;;;;;;;7.97;4.00;;;9.20;99.90;;;;;;5105496;27;20130;-63
2024/02/10 01:55:59;;;;;;;8.52;4.38;;;9.30;99.90;;;;;;5077784;28;20032;-63
2024/02/10 01:58:25;;;;;;;15.23;5.53;;;9.20;99.90;;;;;;5076361;28;20043;-63
2024/02/10 02:00:53;;;;;;;5.97;4.40;;;9.10;99.90;;;;;;5092245;28;20056;-63
2024/02/10 02:03:19;;;;;;;9.40;4.45;;;9.10;99.90;;;;;;5079934;28;20078;-63
2024/02/10 02:05:45;;;;;;;7.75;4.38;;;9.00;99.90;;;;;;5095761;28;20091;-63
2024/02/10 02:08:11;;;;;;;9.63;4.95;;;9.00;99.90;;;;;;5091991;28;20039;-63
2024/02/10 02:10:37;;;;;;;7.32;5.50;;;9.00;99.90;;;;;;5097129;28;20035;-63
2024/02/10 02:13:05;;;;;;;8.57;5.13;;;9.00;99.90;;;;;;5110697;27;20078;-63
2024/02/10 02:15:31;;;;;;;9.07;4.95;;;9.00;99.90;;;;;;5075829;28;20079;-63
2024/02/10 02:17:57;;;;;;;8.23;5.10;;;9.00;99.90;;;;;;5099777;28;20063;-63
2024/02/10 02:20:24;;;;;;;10.30;5.25;;;8.90;99.90;;;;;;5108938;27;20051;-63
2024/02/10 02:22:51;;;;;;;11.68;5.47;;;9.00;99.90;;;;;;5092972;28;20097;-63
2024/02/10 02:25:17;;;;;;;11.60;5.40;;;9.00;99.90;;;;;;5108153;27;20055;-63
2024/02/10 02:27:43;;;;;;;9.05;5.47;;;8.90;99.90;;;;;;5093757;28;20054;-63
2024/02/10 02:30:09;;;;;;;10.93;6.55;;;9.00;99.90;;;;;;5094563;28;20040;-63
2024/02/10 02:32:35;;;;;;;9.07;5.22;;;8.90;99.90;;;;;;5077283;28;20048;-63
2024/02/10 02:35:06;;;;;;;9.55;5.50;;;8.90;99.90;;;;;;5108876;27;20032;-63
2024/02/10 02:37:32;;;;;;;10.30;5.20;;;8.90;99.90;;;;;;5075908;28;20052;-63
2024/02/10 02:39:58;;;;;;;10.75;5.85;;;8.90;99.90;;;;;;5071432;28;20072;-63
2024/02/10 02:42:23;;;;;;;13.60;6.30;;;8.80;99.90;;;;;;5109058;27;20086;-63
2024/02/10 02:44:49;;;;;;;10.88;6.10;;;8.80;99.90;;;;;;5074203;28;20040;-63
2024/02/10 02:47:15;;;;;;;10.35;6.50;;;8.80;99.90;;;;;;5076290;28;20067;-63
2024/02/10 02:49:40;;;;;;;6.90;6.10;;;8.80;99.90;;;;;;5092257;28;20128;-63
2024/02/10 02:52:07;;;;;;;10.45;6.15;;;8.80;99.90;;;;;;5076614;28;20051;-63
2024/02/10 02:54:34;;;;;;;11.52;6.97;;;8.80;99.90;;;;;;5077787;28;20054;-63
2024/02/10 02:57:00;;;;;;;12.05;5.95;;;8.80;99.90;;;;;;5062512;28;20042;-63
2024/02/10 02:59:26;;;;;;;9.50;6.40;;;8.80;99.90;;;;;;5095812;28;20032;-63
2024/02/10 03:01:54;;;;;;;10.25;7.13;;;8.80;99.90;;;;;;5074418;28;20044;-63
2024/02/10 03:04:19;;;;;;;8.40;5.70;;;8.80;99.90;;;;;;5097641;28;20036;-63
2024/02/10 03:06:45;;;;;;;9.65;6.07;;;8.80;99.90;;;;;;5092563;28;20036;-63
2024/02/10 03:09:12;;;;;;;11.15;6.38;;;8.80;99.90;;;;;;5080236;28;20096;-63
2024/02/10 03:11:38;;;;;;;14.30;6.35;;;8.70;99.90;;;;;;5097892;28;20042;-63
2024/02/10 03:14:04;;;;;;;12.27;7.00;;;8.70;99.90;;;;;;5099134;28;20028;-63
2024/02/10 03:16:33;;;;;;;10.55;6.28;;;8.80;99.90;;;;;;5078191;28;20044;-63
2024/02/10 03:19:01;;;;;;;12.93;6.78;;;8.70;99.90;;;;;;5078521;28;20038;-63
2024/02/10 03:21:27;;;;;;;8.27;6.40;;;8.70;99.90;;;;;;5091441;28;20032;-63
2024/02/10 03:23:53;;;;;;;11.73;5.95;;;8.60;99.90;;;;;;5078280;28;20543;-63
2024/02/10 03:26:19;;;;;;;12.00;6.65;;;8.60;99.90;;;;;;5078300;28;20044;-63
2024/02/10 03:28:44;;;;;;;13.00;6.68;;;8.60;99.90;;;;;;5079559;28;20065;-63
2024/02/10 03:31:11;;;;;;;10.88;6.45;;;8.60;99.90;;;;;;5075188;28;20127;-63
2024/02/10 03:33:36;;;;;;;12.05;6.63;;;8.50;99.90;;;;;;5093448;28;20047;-63
2024/02/10 03:36:03;;;;;;;11.93;6.90;;;8.50;99.90;;;;;;5079277;28;20130;-63
2024/02/10 03:38:29;;;;;;;9.98;6.95;;;8.60;99.90;;;;;;5095753;28;20072;-63
2024/02/10 03:40:54;;;;;;;11.18;7.28;;;8.50;99.90;;;;;;5080194;28;20040;-63
2024/02/10 03:43:27;;;;;;;10.95;6.40;;;8.50;99.90;;;;;;5113172;28;20040;-63
2024/02/10 03:45:53;;;;;;;11.27;7.53;;;8.50;99.90;;;;;;5079688;28;20122;-63
2024/02/10 03:48:19;;;;;;;8.07;7.00;;;8.50;99.90;;;;;;5093838;28;20040;-63
2024/02/10 03:50:45;;;;;;;11.50;6.70;;;8.50;99.90;;;;;;5070735;28;20127;-63
2024/02/10 03:53:10;;;;;;;9.48;6.57;;;8.50;99.90;;;;;;5068417;28;20048;-63
2024/02/10 03:55:38;;;;;;;11.68;6.03;;;8.50;99.90;;;;;;5080541;28;20043;-63
2024/02/10 03:58:05;;;;;;;14.15;7.10;;;8.60;99.90;;;;;;5099225;28;20032;-63
2024/02/10 04:00:36;;;;;;;9.48;6.25;;;8.50;99.90;;;;;;5078000;28;20038;-63
2024/02/10 04:03:02;;;;;;;9.77;6.22;;;8.50;99.90;;;;;;5077796;28;20043;-63
2024/02/10 04:05:33;;;;;;;11.20;6.10;;;8.60;99.90;;;;;;5076156;28;20036;-63
2024/02/10 04:07:59;;;;;;;11.02;6.32;;;8.50;99.90;;;;;;5110213;28;20032;-63
2024/02/10 04:10:24;;;;;;;10.93;5.88;;;8.50;99.90;;;;;;5096522;28;20447;-63
2024/02/10 04:12:50;;;;;;;7.85;5.70;;;8.60;99.90;;;;;;5081497;28;20047;-63
2024/02/10 04:15:15;;;;;;;12.68;6.10;;;8.50;99.90;;;;;;5100523;28;20445;-63
2024/02/10 04:17:55;;;;;;;11.52;6.60;;;8.50;99.90;;;;;;5097867;28;20071;-63
2024/02/10 04:20:22;;;;;;;8.35;5.95;;;8.50;99.90;;;;;;5095280;28;20043;-63
2024/02/10 04:22:51;;;;;;;9.77;6.18;;;8.60;99.90;;;;;;5074617;28;20039;-63
2024/02/10 04:25:17;;;;;;;9.25;6.10;;;8.50;99.90;;;;;;5094863;28;20460;-63
2024/02/10 04:27:43;;;;;;;11.93;7.05;;;8.50;99.90;;;;;;5097135;28;20075;-63
2024/02/10 04:30:10;;;;;;;9.43;5.80;;;8.50;99.90;;;;;;5095752;28;20040;-63
2024/02/10 04:32:42;;;;;;;12.02;7.25;;;8.50;99.90;;;;;;5099231;28;20040;-63
2024/02/10 04:35:09;;;;;;;10.23;6.18;;;8.50;99.90;;;;;;5096773;28;20119;-63
2024/02/10 04:37:35;;;;;;;8.30;5.45;;;8.60;99.90;;;;;;5085446;28;20039;-63
2024/02/10 04:40:02;;;;;;;8.45;6.65;;;8.60;99.90;;;;;;5111970;27;20119;-63
2024/02/10 04:42:28;;;;;;;10.73;6.40;;;8.50;99.90;;;;;;5101393;28;20425;-63
2024/02/10 04:44:59;;;;;;;9.90;5.60;;;8.50;99.90;;;;;;5102641;28;20030;-63
2024/02/10 04:47:25;;;;;;;8.48;5.78;;;8.40;99.90;;;;;;5102253;28;20371;-63
2024/02/10 04:49:52;;;;;;;7.10;5.68;;;8.30;99.90;;;;;;5102537;28;20044;-63
2024/02/10 04:52:18;;;;;;;7.32;5.72;;;8.40;99.90;;;;;;5098303;28;20400;-63
2024/02/10 04:54:44;;;;;;;9.68;5.50;;;8.40;99.90;;;;;;5095035;28;20115;-63
2024/02/10 04:57:10;;;;;;;10.45;5.95;;;8.30;99.90;;;;;;5085335;28;20075;-63
2024/02/10 04:59:38;;;;;;;8.93;5.57;;;8.30;99.90;;;;;;5101359;28;20457;-63
2024/02/10 05:02:04;;;;;;;8.50;6.18;;;8.30;99.90;;;;;;5095757;28;20044;-63
2024/02/10 05:04:30;;;;;;;7.45;5.53;;;8.20;99.90;;;;;;5082330;28;20090;-63
2024/02/10 05:06:56;;;;;;;8.57;6.05;;;8.20;99.90;;;;;;5082219;28;20166;-63
2024/02/10 05:09:22;;;;;;;8.02;5.32;;;8.20;99.90;;;;;;5082776;28;20086;-63
2024/02/10 05:11:48;;;;;;;8.93;6.22;;;8.20;99.90;;;;;;5078791;28;20046;-63
2024/02/10 05:14:13;;;;;;;11.52;5.97;;;8.10;99.90;;;;;;5100326;28;20037;-63
2024/02/10 05:16:39;;;;;;;9.32;5.70;;;8.10;99.90;;;;;;5084690;28;20490;-63
2024/02/10 05:19:05;;;;;;;8.00;5.95;;;8.10;99.90;;;;;;5112170;27;20051;-63
2024/02/10 05:21:35;;;;;;;15.32;5.65;;;8.10;99.90;;;;;;5080507;28;20120;-63
2024/02/10 05:24:05;;;;;;;7.40;5.63;;;8.00;99.90;;;;;;5082932;28;20491;-63
2024/02/10 05:26:39;;;;;;;10.52;6.18;;;8.00;99.90;;;;;;5081090;28;20052;-63
2024/02/10 05:29:10;;;;;;;7.13;5.97;;;8.00;99.90;;;;;;5076351;28;20508;-63
2024/02/10 05:31:37;;;;;;;8.20;5.60;;;7.90;99.90;;;;;;5079070;28;20047;-63
2024/02/10 05:34:10;;;;;;;8.00;6.05;;;7.90;99.90;;;;;;5077502;28;20566;-63
2024/02/10 05:36:35;;;;;;;11.07;6.15;;;7.90;99.90;;;;;;5113620;27;20059;-63
2024/02/10 05:39:06;;;;;;;8.07;5.78;;;7.90;99.90;;;;;;5099692;28;20032;-63
2024/02/10 05:41:32;;;;;;;10.48;7.18;;;7.90;99.90;;;;;;5100058;28;20500;-63
2024/02/10 05:43:58;;;;;;;12.13;6.30;;;7.80;99.90;;;;;;5095321;28;20032;-63
2024/02/10 05:46:23;;;;;;;8.65;6.63;;;7.90;99.90;;;;;;5081363;28;20479;-63
2024/02/10 05:48:50;;;;;;;8.63;6.90;;;7.80;99.90;;;;;;5078539;28;20942;-63
2024/02/10 05:51:17;;;;;;;10.35;7.13;;;7.90;99.90;;;;;;5108867;27;20040;-63
2024/02/10 05:53:46;;;;;;;12.45;7.20;;;7.80;99.90;;;;;;5078114;28;20071;-63
2024/02/10 05:56:15;;;;;;;11.23;8.25;;;7.90;99.90;;;;;;5075880;28;20101;-63
2024/02/10 05:58:44;;;;;;;15.30;8.95;;;7.90;99.90;;;;;;5094317;28;20123;-63
2024/02/10 06:01:18;;;;;;;13.20;9.10;;;8.00;99.90;;;;;;5072637;28;20036;-63
2024/02/10 06:03:44;;;;;;;13.50;8.90;;;8.10;99.90;;;;;;5080578;28;20517;-63
2024/02/10 06:06:09;;;;;;;15.00;9.60;;;8.10;99.90;;;;;;5093761;28;20086;-63
2024/02/10 06:08:36;;;;;;;12.57;10.07;;;8.20;99.90;;;;;;5107577;27;20277;-63
2024/02/10 06:11:05;;;;;;;14.02;9.55;;;8.20;99.90;;;;;;5096645;28;20039;-63
2024/02/10 06:13:32;;;;;;;17.13;11.35;;;8.20;99.90;;;;;;5074447;28;20035;-63
2024/02/10 06:16:01;;;;;;;18.88;11.35;;;8.20;99.90;;;;;;5076963;28;20371;-63
2024/02/10 06:18:30;;;;;;;18.05;11.90;;;8.20;99.90;;;;;;5084186;28;20524;-63
2024/02/10 06:21:00;;;;;;;14.77;10.90;;;8.20;99.90;;;;;;5076956;28;20040;-63
2024/02/10 06:23:26;;;;;;;15.05;11.40;;;8.10;99.90;;;;;;5060612;28;20047;-63
2024/02/10 06:25:55;;;;;;;18.17;11.63;;;8.20;99.90;;;;;;5062203;28;20071;-63
2024/02/10 06:28:22;;;;;;;14.82;11.60;;;8.10;99.90;;;;;;5070733;28;20063;-64
2024/02/10 06:30:51;;;;;;;16.42;10.88;;;8.20;99.90;;;;;;5077668;28;20498;-63
2024/02/10 06:33:21;;;;;;;15.18;10.88;;;8.10;99.90;;;;;;5089480;28;20481;-63
2024/02/10 06:35:51;;;;;;;18.55;12.15;;;8.00;99.90;;;;;;5060951;28;20031;-63
2024/02/10 06:38:17;;;;;;;20.77;12.13;;;8.00;99.90;;;;;;5076646;28;20093;-64
2024/02/10 06:40:43;;;;;;;14.68;10.63;;;8.00;99.90;;;;;;5076358;28;20043;-63
2024/02/10 06:43:12;;;;;;;16.52;11.65;;;7.90;99.90;;;;;;5076392;28;20470;-63
2024/02/10 06:45:41;;;;;;;19.23;12.38;;;7.90;99.90;;;;;;5109845;27;20497;-63
2024/02/10 06:48:11;;;;;;;18.67;11.65;;;8.00;99.90;;;;;;5095643;28;20490;-63
2024/02/10 06:50:38;;;;;;;17.50;11.27;;;7.90;99.90;;;;;;5097232;28;20040;-63
2024/02/10 06:53:04;;;;;;;15.13;11.95;;;7.80;99.90;;;;;;5077749;28;20048;-63
2024/02/10 06:55:30;;;;;;;17.63;12.60;;;7.80;99.90;;;;;;5081485;28;20257;-63
2024/02/10 06:57:56;;;;;;;16.17;11.25;;;7.80;99.90;;;;;;5076015;28;20035;-63
2024/02/10 07:00:23;;;;;;;19.52;12.20;;;7.80;99.90;;;;;;5079278;28;20444;-63
2024/02/10 07:02:49;;;;;;;15.07;12.45;;;7.70;99.90;;;;;;5093582;28;20124;-63
2024/02/10 07:05:16;;;;;;;15.43;12.63;;;7.70;99.90;;;;;;5071598;28;20047;-63
2024/02/10 07:07:43;;;;;;;16.40;12.38;;;7.70;99.90;;;;;;5090283;28;20076;-63
2024/02/10 07:10:20;;;;;;;17.42;13.05;;;7.70;99.90;;;;;;5105970;27;20047;-63
2024/02/10 07:12:47;;;;;;;16.05;13.90;;;7.60;99.90;;;;;;5093781;28;20064;-63
2024/02/10 07:15:17;;;;;;;20.55;13.90;;;7.60;99.90;;;;;;5077249;28;20543;-63
2024/02/10 07:17:46;;;;;;;23.05;13.50;;;7.60;99.90;;;;;;5091124;28;20040;-63
2024/02/10 07:20:18;;;;;;;18.75;14.73;;;7.60;99.90;;;;;;5106109;27;20382;-63
2024/02/10 07:22:54;;;;;;;18.35;13.85;;;7.60;99.90;;;;;;5056101;28;20035;-63
2024/02/10 07:25:21;;;;;;;;;;;7.60;99.90;;;;;;5072885;28;20103;-63
2024/02/10 07:27:50;;;;;;;17.95;13.07;;;7.60;99.90;;;;;;5070612;28;19926;-63
2024/02/10 07:30:19;;;;;;;18.35;14.60;;;7.60;99.90;;;;;;5090295;28;20039;-63
2024/02/10 07:32:48;;;;;;;23.90;14.88;;;7.60;99.90;;;;;;5074859;28;20048;-63
2024/02/10 07:35:15;;;;;;;23.38;14.88;;;7.70;99.90;;;;;;5089915;28;20039;-63
2024/02/10 07:37:43;;;;;;;21.90;15.93;;;7.70;99.90;;;;;;5054122;28;20044;-63
2024/02/10 07:40:10;;;;;;;22.38;15.45;;;7.70;99.90;;;;;;5099901;28;20420;-63
2024/02/10 07:42:37;;;;;;;23.15;15.75;;;7.70;99.90;;;;;;5074946;28;20039;-63
2024/02/10 07:45:03;;;;;;;21.90;17.02;;;7.80;99.90;;;;;;5074829;28;20040;-63
2024/02/10 07:47:29;;;;;;;24.08;16.70;;;7.80;99.90;;;;;;5078308;28;20120;-63
2024/02/10 07:49:54;;;;;;;24.20;17.27;;;7.90;99.90;;;;;;5093607;28;20069;-63
2024/02/10 07:52:26;;;;;;;24.75;18.00;;;7.90;99.90;;;;;;5075646;28;20101;-63
2024/02/10 07:54:52;;;;;;;25.33;17.67;;;8.10;99.90;;;;;;5093046;28;20122;-63
2024/02/10 07:57:21;;;;;;;28.17;18.00;;;8.10;99.90;;;;;;5077004;28;20181;-63
2024/02/10 07:59:52;;;;;;;26.00;18.77;;;8.20;99.90;;;;;;5096339;28;20511;-63
2024/02/10 08:02:21;;;;;;;27.40;17.85;;;8.20;99.90;;;;;;5092870;28;20393;-63
2024/02/10 08:04:51;;;;;;;25.45;20.48;;;8.20;99.90;;;;;;5094029;28;20492;-63
2024/02/10 08:07:18;;;;;;;24.63;18.95;;;8.30;99.90;;;;;;5106914;27;20047;-63
2024/02/10 08:09:45;;;;;;;27.40;18.42;;;8.40;99.90;;;;;;5103775;27;20054;-63
2024/02/10 08:12:15;;;;;;;24.80;18.33;;;8.40;99.90;;;;;;5079301;28;20087;-63
2024/02/10 08:14:42;;;;;;;24.15;18.35;;;8.40;99.90;;;;;;5113871;27;20051;-63
2024/02/10 08:17:09;;;;;;;24.70;16.90;;;8.50;99.90;;;;;;5096736;28;20134;-63
2024/02/10 08:19:35;;;;;;;24.80;17.45;;;8.50;99.90;;;;;;5074464;28;20046;-63
2024/02/10 08:22:07;;;;;;;23.70;18.73;;;8.60;99.90;;;;;;5109889;27;20125;-63
2024/02/10 08:24:34;;;;;;;24.48;16.83;;;8.60;99.90;;;;;;5096554;28;20036;-63
2024/02/10 08:27:00;;;;;;;23.25;18.15;;;8.60;99.90;;;;;;5095159;28;20042;-63
2024/02/10 08:29:33;;;;;;;25.42;18.60;;;8.70;99.90;;;;;;5077839;28;20048;-63
2024/02/10 08:32:03;;;;;;;25.83;17.85;;;8.70;99.90;;;;;;5093955;28;20493;-63
2024/02/10 08:34:35;;;;;;;22.35;17.30;;;8.70;99.90;;;;;;5087266;28;20031;-63
2024/02/10 08:37:04;;;;;;;26.20;17.15;;;8.80;99.90;;;;;;5096536;28;20036;-63
2024/02/10 08:39:32;;;;;;;23.00;16.58;;;8.80;99.90;;;;;;5106595;27;20429;-63
2024/02/10 08:42:00;;;;;;;22.27;16.27;;;8.90;99.90;;;;;;5082236;28;20032;-63
2024/02/10 08:44:28;;;;;;;19.10;16.02;;;8.90;99.90;;;;;;5092736;28;20370;-63
2024/02/10 08:46:53;;;;;;;22.67;16.15;;;9.00;99.90;;;;;;5080952;28;20096;-63
2024/02/10 08:49:19;;;;;;;20.23;15.68;;;9.00;99.90;;;;;;5109362;27;20035;-63
2024/02/10 08:51:49;;;;;;;19.25;15.93;;;9.10;99.90;;;;;;5103035;28;20040;-63
2024/02/10 08:54:18;;;;;;;19.92;15.02;;;9.20;99.90;;;;;;5113579;27;20036;-63
2024/02/10 08:56:44;;;;;;;22.27;15.32;;;9.20;99.90;;;;;;5077794;28;20072;-63
2024/02/10 08:59:13;;;;;;;17.73;13.98;;;9.20;99.90;;;;;;5097582;28;20071;-63
2024/02/10 09:01:42;;;;;;;17.58;14.60;;;9.30;99.90;;;;;;5099660;28;20040;-63
2024/02/10 09:04:11;;;;;;;19.63;14.93;;;9.40;99.90;;;;;;5077158;28;20046;-63
2024/02/10 09:06:37;;;;;;;16.23;13.50;;;9.30;99.90;;;;;;5099042;28;20040;-63
2024/02/10 09:09:04;;;;;;;18.60;12.70;;;9.10;99.90;;;;;;5079707;28;20047;-63
2024/02/10 09:11:37;;;;;;;16.42;13.45;;;9.50;99.90;;;;;;5075183;28;20035;-63
2024/02/10 09:14:03;;;;;;;15.52;12.25;;;9.50;99.90;;;;;;5113256;27;20044;-63
2024/02/10 09:16:30;;;;;;;18.20;13.13;;;9.60;99.90;;;;;;5099035;28;20039;-63
2024/02/10 09:18:57;;;;;;;14.63;11.85;;;9.70;99.90;;;;;;5082635;28;20036;-63
2024/02/10 09:21:22;;;;;;;15.48;12.27;;;9.60;99.90;;;;;;5096869;28;20112;-63
2024/02/10 09:23:48;;;;;;;16.45;12.52;;;9.80;99.90;;;;;;5077268;28;20565;-63
2024/02/10 09:26:16;;;;;;;15.68;12.15;;;9.70;99.90;;;;;;5098152;28;20540;-63
2024/02/10 09:28:47;;;;;;;13.88;10.82;;;9.80;99.90;;;;;;5094700;28;20051;-63
2024/02/10 09:31:13;;;;;;;14.88;10.48;;;9.80;99.90;;;;;;5079773;28;20401;-63
2024/02/10 09:33:41;;;;;;;13.60;10.73;;;9.90;99.90;;;;;;5093555;28;20398;-63
2024/02/10 09:36:13;;;;;;;13.70;11.57;;;10.00;99.90;;;;;;5078849;28;20036;-63
2024/02/10 09:38:42;;;;;;;11.40;10.32;;;10.10;99.90;;;;;;5093952;28;20035;-63
2024/02/10 09:41:14;;;;;;;10.60;9.57;;;10.10;99.90;;;;;;5079404;28;20124;-63
2024/02/10 09:43:42;;;;;;;10.15;9.15;;;10.20;99.90;;;;;;5096842;28;20046;-63
2024/02/10 09:46:08;;;;;;;12.05;9.77;;;10.10;99.90;;;;;;5094450;28;20509;-63
2024/02/10 09:48:48;;;;;;;9.40;8.45;;;10.20;99.90;;;;;;5076912;28;20048;-63
2024/02/10 09:51:14;;;;;;;11.00;9.23;;;10.30;99.90;;;;;;5096811;28;20138;-63
2024/02/10 09:53:41;;;;;;;10.10;8.60;;;10.30;99.90;;;;;;5079936;28;20048;-63
2024/02/10 09:56:13;;;;;;;9.65;8.75;;;10.30;99.90;;;;;;5097108;28;20166;-63
2024/02/10 09:58:47;;;;;;;10.73;8.40;;;10.30;99.90;;;;;;5092937;28;20114;-63
2024/02/10 10:01:13;;;;;;;8.55;7.57;;;10.40;99.90;;;;;;5073327;28;20469;-63
2024/02/10 10:03:39;;;;;;;8.75;7.85;;;10.30;99.90;;;;;;5077993;28;20044;-63
2024/02/10 10:06:09;;;;;;;9.15;7.88;;;10.30;99.90;;;;;;5075706;28;20051;-63
2024/02/10 10:08:39;;;;;;;10.05;7.47;;;10.30;99.90;;;;;;5092058;28;20402;-63
2024/02/10 10:11:06;;;;;;;8.70;7.53;;;10.30;99.90;;;;;;5077995;28;20503;-63
2024/02/10 10:13:35;;;;;;;7.75;6.95;;;10.30;99.90;;;;;;5095634;28;20389;-63
2024/02/10 10:16:05;;;;;;;11.13;7.15;;;10.50;99.90;;;;;;5075406;28;20131;-63
2024/02/10 10:18:33;;;;;;;8.43;7.43;;;10.30;99.90;;;;;;5094557;28;20541;-63
2024/02/10 10:20:59;;;;;;;7.30;6.18;;;10.40;99.90;;;;;;5080318;28;20036;-63
2024/02/10 10:23:26;;;;;;;7.72;6.55;;;10.40;99.90;;;;;;5095049;28;20559;-63
2024/02/10 10:25:52;;;;;;;7.43;6.57;;;10.40;99.90;;;;;;5078130;28;20105;-63
2024/02/10 10:28:17;;;;;;;9.10;7.78;;;10.40;99.90;;;;;;5097400;28;20035;-63
2024/02/10 10:30:45;;;;;;;9.30;7.10;;;10.50;99.90;;;;;;5076549;28;20038;-63
2024/02/10 10:33:11;;;;;;;8.82;7.35;;;10.60;99.90;;;;;;5079407;28;20077;-63
2024/02/10 10:35:44;;;;;;;10.07;7.22;;;10.60;99.90;;;;;;5075511;28;20505;-63
2024/02/10 10:38:11;;;;;;;9.07;8.13;;;10.70;99.90;;;;;;5100573;27;20036;-63
2024/02/10 10:40:37;;;;;;;7.40;6.70;;;10.80;99.90;;;;;;5077241;28;20050;-63
2024/02/10 10:43:10;;;;;;;10.02;7.65;;;10.80;99.90;;;;;;5077628;28;20036;-63
2024/02/10 10:45:37;;;;;;;8.13;6.57;;;10.80;99.90;;;;;;5075009;28;20036;-63
2024/02/10 10:48:06;;;;;;;9.98;7.40;;;10.90;99.90;;;;;;5096053;28;20136;-63
2024/02/10 10:50:33;;;;;;;8.07;7.22;;;11.00;99.90;;;;;;5079910;28;20043;-63
2024/02/10 10:53:07;;;;;;;7.65;6.55;;;11.10;99.90;;;;;;5076070;28;20036;-63
2024/02/10 10:55:38;;;;;;;8.43;7.38;;;11.10;99.90;;;;;;5078518;28;20127;-63
2024/02/10 10:58:09;;;;;;;7.97;6.60;;;11.20;99.90;;;;;;5074885;28;20044;-63
2024/02/10 11:00:39;;;;;;;8.52;6.40;;;11.20;99.90;;;;;;5090563;28;20038;-63
2024/02/10 11:03:05;;;;;;;11.93;7.20;;;11.60;99.90;;;;;;5090111;28;20040;-63
2024/02/10 11:05:40;;;;;;;7.20;6.28;;;11.30;99.90;;;;;;5076506;28;20043;-63
2024/02/10 11:08:08;;;;;;;6.50;5.82;;;11.40;99.90;;;;;;5110556;27;20184;-63
2024/02/10 11:10:48;;;;;;;6.22;5.40;;;11.40;99.90;;;;;;5092684;28;20126;-63
2024/02/10 11:13:21;;;;;;;6.32;5.50;;;11.40;99.90;;;;;;5075527;28;20055;-62
2024/02/10 11:16:13;;;;;;;6.68;5.20;;;11.40;99.90;;;;;;5107692;27;20040;-63
2024/02/10 11:18:56;;;;;;;6.70;5.20;;;11.50;99.90;;;;;;5089942;28;20097;-63
2024/02/10 11:21:30;;;;;;;5.53;4.75;;;11.70;99.90;;;;;;5078401;28;20039;-63
2024/02/10 11:24:02;;;;;;;5.80;5.18;;;11.50;99.90;;;;;;5095546;28;20071;-63
2024/02/10 11:26:29;;;;;;;6.38;5.32;;;11.50;99.90;;;;;;5106365;27;20052;-63
2024/02/10 11:28:59;;;;;;;5.60;5.10;;;11.70;99.90;;;;;;5071121;28;20717;-63
2024/02/10 11:31:25;;;;;;;8.13;5.30;;;11.70;99.90;;;;;;5074998;28;20043;-63
2024/02/10 11:33:51;;;;;;;5.43;4.93;;;11.60;99.90;;;;;;5086974;28;20044;-63
2024/02/10 11:36:19;;;;;;;4.90;4.22;;;11.60;99.90;;;;;;5075337;28;20044;-63
2024/02/10 11:38:45;;;;;;;5.50;4.75;;;11.70;99.90;;;;;;5073976;28;20040;-63
2024/02/10 11:41:13;;;;;;;5.28;4.78;;;11.80;99.90;;;;;;5076925;28;20082;-63
2024/02/10 11:43:39;;;;;;;5.45;4.32;;;11.80;99.90;;;;;;5075161;28;20489;-63
2024/02/10 11:46:04;;;;;;;4.55;4.15;;;11.80;99.90;;;;;;5075323;28;20089;-63
2024/02/10 11:48:30;;;;;;;5.60;5.00;;;11.80;99.90;;;;;;5077649;28;20044;-63
2024/02/10 11:50:59;;;;;;;4.85;4.30;;;11.90;99.90;;;;;;5077030;28;20035;-63
2024/02/10 11:53:25;;;;;;;4.43;4.03;;;11.90;99.90;;;;;;5088579;28;20047;-63
2024/02/10 11:55:51;;;;;;;5.15;4.18;;;11.90;99.90;;;;;;5092867;28;20422;-63
2024/02/10 11:58:18;;;;;;;4.93;4.40;;;11.90;99.90;;;;;;5100626;28;20048;-63
2024/02/10 12:00:45;;;;;;;4.63;3.80;;;12.00;99.90;;;;;;5071320;28;20153;-63
2024/02/10 12:03:15;;;;;;;4.53;4.07;;;12.00;99.90;;;;;;5091594;28;20375;-63
2024/02/10 12:05:42;;;;;;;4.13;3.70;;;12.10;99.90;;;;;;5091101;28;20075;-63
2024/02/10 12:08:09;;;;;;;4.20;3.70;;;12.00;99.90;;;;;;5071313;28;20036;-63
2024/02/10 12:10:36;;;;;;;4.22;3.80;;;12.10;99.90;;;;;;5103810;28;20044;-63
2024/02/10 12:13:02;;;;;;;4.07;3.50;;;12.20;99.90;;;;;;5087484;28;20036;-63
2024/02/10 12:15:28;;;;;;;3.97;3.53;;;12.10;99.90;;;;;;5073526;28;20123;-63
2024/02/10 12:17:58;;;;;;;4.25;3.63;;;12.20;99.90;;;;;;5072398;28;20037;-63
2024/02/10 12:20:25;;;;;;;4.30;3.50;;;12.20;99.90;;;;;;5092013;28;20560;-63
2024/02/10 12:22:52;;;;;;;5.32;3.47;;;12.20;99.90;;;;;;5092053;28;20032;-63
2024/02/10 12:25:19;;;;;;;5.05;3.20;;;12.20;99.90;;;;;;5074205;28;20044;-63
2024/02/10 12:27:45;;;;;;;3.72;3.35;;;12.30;99.90;;;;;;5073985;28;20080;-63
2024/02/10 12:30:12;;;;;;;4.90;3.85;;;12.30;99.90;;;;;;5091592;28;20044;-63
2024/02/10 12:32:38;;;;;;;4.60;3.60;;;12.30;99.90;;;;;;5090387;28;20485;-63
2024/02/10 12:35:07;;;;;;;6.57;5.80;;;12.40;99.90;;;;;;5094068;28;20032;-63
2024/02/10 12:37:33;;;;;;;5.13;4.63;;;12.40;99.90;;;;;;5070860;28;20048;-63
2024/02/10 12:39:59;;;;;;;4.95;3.40;;;12.40;99.90;;;;;;5094023;28;20095;-63
2024/02/10 12:42:25;;;;;;;4.72;3.92;;;12.40;99.90;;;;;;5090337;28;20505;-63
2024/02/10 12:44:50;;;;;;;4.82;3.65;;;12.30;99.90;;;;;;5074503;28;20040;-63
2024/02/10 12:47:16;;;;;;;6.63;4.15;;;12.40;99.90;;;;;;5057143;28;20036;-63
2024/02/10 12:49:43;;;;;;;4.43;3.90;;;12.30;99.90;;;;;;5088842;28;20381;-63